Tremont City, Ohio
Current Conditions -  °F | °C
As of 12:56 PM on Thursday 30 Oct 2014 (Local Time) from KSGH Reporting Station
Broken Clouds Broken Clouds  
Wind Chill: 49°   Ceiling: 3600
Heat Index: 49°   Visibility: 10mi
Dew Point: 34°   Wind: 3mph
Humidity: 56%   Direction: 190°S
Pressure: 30.15"   Gusts: NA
Location:  40.01°N, 83.84°W
Report Text: KSGH 301656Z AUTO 19003KT 10SM BKN036 09/01 A3015 RMK AO2 T00940011 BKN V OVC SLP212
Loading
Personal Weather Stations






























Interactive Weather Map
Tropical Storm Tracking
New forecast layout! Learn more

10-Day Weather Forecast

Advertisements
Track Severe Weather on mobile